sensor_id;sensor_type;location;lat;lon;timestamp;pressure;altitude;pressure_sealevel;temperature;humidity
77165;BME280;66140;50.280;18.660;2023-02-02T05:02:43;98351.59;;;0.65;95.16
77165;BME280;66140;50.280;18.660;2023-02-02T05:05:11;98338.81;;;0.58;95.91
77165;BME280;66140;50.280;18.660;2023-02-02T05:07:37;98320.53;;;0.58;94.70
77165;BME280;66140;50.280;18.660;2023-02-02T05:14:01;98345.91;;;0.77;93.59
77165;BME280;66140;50.280;18.660;2023-02-02T05:16:32;98331.28;;;0.73;93.88
77165;BME280;66140;50.280;18.660;2023-02-02T05:19:07;98365.19;;;0.98;92.88
77165;BME280;66140;50.280;18.660;2023-02-02T05:21:51;98371.22;;;1.00;93.28
77165;BME280;66140;50.280;18.660;2023-02-02T05:24:38;98340.56;;;0.82;93.65
77165;BME280;66140;50.280;18.660;2023-02-02T05:28:11;98372.91;;;1.01;93.13
77165;BME280;66140;50.280;18.660;2023-02-02T05:31:22;98360.75;;;1.00;93.05
77165;BME280;66140;50.280;18.660;2023-02-02T05:33:56;98319.94;;;0.74;92.90
77165;BME280;66140;50.280;18.660;2023-02-02T05:36:21;98373.00;;;0.98;93.66
77165;BME280;66140;50.280;18.660;2023-02-02T05:38:49;98311.47;;;0.68;93.60
77165;BME280;66140;50.280;18.660;2023-02-02T05:41:17;98337.31;;;0.75;93.54
77165;BME280;66140;50.280;18.660;2023-02-02T05:43:48;98372.00;;;1.02;92.61
77165;BME280;66140;50.280;18.660;2023-02-02T05:46:16;98332.81;;;0.79;92.28
77165;BME280;66140;50.280;18.660;2023-02-02T05:48:44;98341.09;;;0.90;92.43
77165;BME280;66140;50.280;18.660;2023-02-02T05:51:27;98356.44;;;0.99;92.37
77165;BME280;66140;50.280;18.660;2023-02-02T05:53:56;98322.38;;;0.79;92.12
77165;BME280;66140;50.280;18.660;2023-02-02T05:56:21;98356.34;;;1.02;92.52
77165;BME280;66140;50.280;18.660;2023-02-02T05:59:36;98328.22;;;0.86;92.12
77165;BME280;66140;50.280;18.660;2023-02-02T06:02:15;98350.25;;;1.02;91.68
77165;BME280;66140;50.280;18.660;2023-02-02T06:07:44;98327.28;;;0.88;90.87
77165;BME280;66140;50.280;18.660;2023-02-02T06:10:13;98313.75;;;0.77;91.11
77165;BME280;66140;50.280;18.660;2023-02-02T07:19:40;98338.03;;;0.79;94.40
77165;BME280;66140;50.280;18.660;2023-02-02T07:22:12;98307.16;;;0.67;94.98
77165;BME280;66140;50.280;18.660;2023-02-02T07:24:46;98367.84;;;0.97;94.49
77165;BME280;66140;50.280;18.660;2023-02-02T07:27:46;98345.72;;;1.07;93.41
77165;BME280;66140;50.280;18.660;2023-02-02T07:30:14;98350.03;;;1.08;93.08
77165;BME280;66140;50.280;18.660;2023-02-02T07:32:48;98297.75;;;0.86;94.09
77165;BME280;66140;50.280;18.660;2023-02-02T07:35:14;98341.25;;;1.09;94.27
77165;BME280;66140;50.280;18.660;2023-02-02T07:37:43;98343.81;;;1.10;93.54
77165;BME280;66140;50.280;18.660;2023-02-02T07:40:16;98332.59;;;1.08;94.00
77165;BME280;66140;50.280;18.660;2023-02-02T07:42:47;98331.56;;;1.12;93.42
77165;BME280;66140;50.280;18.660;2023-02-02T07:45:25;98356.16;;;1.29;93.42
77165;BME280;66140;50.280;18.660;2023-02-02T07:48:11;98354.97;;;1.37;92.74
77165;BME280;66140;50.280;18.660;2023-02-02T07:50:36;98341.06;;;1.37;91.33
77165;BME280;66140;50.280;18.660;2023-02-02T07:53:03;98328.19;;;1.32;91.25
77165;BME280;66140;50.280;18.660;2023-02-02T07:55:29;98361.31;;;1.53;91.99
77165;BME280;66140;50.280;18.660;2023-02-02T07:57:55;98343.03;;;1.53;92.55
77165;BME280;66140;50.280;18.660;2023-02-02T08:00:27;98377.19;;;1.71;92.42
77165;BME280;66140;50.280;18.660;2023-02-02T08:02:54;98325.03;;;1.46;92.84
77165;BME280;66140;50.280;18.660;2023-02-02T08:05:41;98353.63;;;1.49;93.31
77165;BME280;66140;50.280;18.660;2023-02-02T08:08:06;98351.38;;;1.61;93.48
77165;BME280;66140;50.280;18.660;2023-02-02T08:10:35;98381.41;;;1.73;93.28
77165;BME280;66140;50.280;18.660;2023-02-02T08:13:01;98330.31;;;1.44;93.50
77165;BME280;66140;50.280;18.660;2023-02-02T08:15:33;98325.94;;;1.45;93.42
77165;BME280;66140;50.280;18.660;2023-02-02T08:18:05;98352.38;;;1.59;93.06
77165;BME280;66140;50.280;18.660;2023-02-02T08:20:33;98389.81;;;1.81;92.64
77165;BME280;66140;50.280;18.660;2023-02-02T08:22:58;98393.34;;;1.80;93.18
77165;BME280;66140;50.280;18.660;2023-02-02T08:25:24;98342.88;;;1.56;92.77
77165;BME280;66140;50.280;18.660;2023-02-02T08:27:54;98369.28;;;1.72;93.26
77165;BME280;66140;50.280;18.660;2023-02-02T08:30:20;98375.84;;;1.82;92.24
77165;BME280;66140;50.280;18.660;2023-02-02T08:32:45;98399.78;;;1.93;91.98
77165;BME280;66140;50.280;18.660;2023-02-02T08:35:11;98364.16;;;1.69;93.00
77165;BME280;66140;50.280;18.660;2023-02-02T08:37:37;98417.19;;;1.94;92.57
77165;BME280;66140;50.280;18.660;2023-02-02T08:40:02;98403.13;;;1.75;92.99
77165;BME280;66140;50.280;18.660;2023-02-02T08:42:28;98438.50;;;1.85;93.79
77165;BME280;66140;50.280;18.660;2023-02-02T08:44:53;98392.06;;;1.47;95.27
77165;BME280;66140;50.280;18.660;2023-02-02T08:47:19;98440.22;;;1.63;95.51
77165;BME280;66140;50.280;18.660;2023-02-02T08:52:28;98385.28;;;1.19;96.85
77165;BME280;66140;50.280;18.660;2023-02-02T08:54:59;98417.97;;;1.30;96.99
77165;BME280;66140;50.280;18.660;2023-02-02T08:57:34;98412.31;;;1.18;97.06
77165;BME280;66140;50.280;18.660;2023-02-02T09:00:05;98434.66;;;1.27;97.29
77165;BME280;66140;50.280;18.660;2023-02-02T09:02:31;98415.16;;;1.12;97.84
77165;BME280;66140;50.280;18.660;2023-02-02T09:04:57;98422.09;;;1.13;97.80
77165;BME280;66140;50.280;18.660;2023-02-02T09:07:24;98433.50;;;1.11;97.78
77165;BME280;66140;50.280;18.660;2023-02-02T09:09:53;98410.97;;;1.08;98.60
77165;BME280;66140;50.280;18.660;2023-02-02T09:12:29;98442.13;;;1.13;98.67
77165;BME280;66140;50.280;18.660;2023-02-02T09:15:27;98423.81;;;0.90;98.88
77165;BME280;66140;50.280;18.660;2023-02-02T09:18:03;98418.94;;;0.80;98.87
77165;BME280;66140;50.280;18.660;2023-02-02T09:21:01;98463.31;;;1.05;98.58
77165;BME280;66140;50.280;18.660;2023-02-02T09:26:13;98457.97;;;1.08;99.32
77165;BME280;66140;50.280;18.660;2023-02-02T09:28:44;98477.72;;;1.15;99.52
77165;BME280;66140;50.280;18.660;2023-02-02T09:31:13;98474.13;;;1.19;99.33
77165;BME280;66140;50.280;18.660;2023-02-02T09:34:15;98477.44;;;1.23;99.06
77165;BME280;66140;50.280;18.660;2023-02-02T09:37:18;98428.50;;;1.05;99.15
77165;BME280;66140;50.280;18.660;2023-02-02T09:39:44;98456.91;;;1.37;98.66
77165;BME280;66140;50.280;18.660;2023-02-02T09:42:38;98488.44;;;1.56;99.15
77165;BME280;66140;50.280;18.660;2023-02-02T09:47:55;98469.16;;;1.58;98.83
77165;BME280;66140;50.280;18.660;2023-02-02T09:50:38;98465.34;;;1.67;98.90
77165;BME280;66140;50.280;18.660;2023-02-02T09:55:45;98478.63;;;1.84;98.35
77165;BME280;66140;50.280;18.660;2023-02-02T09:58:24;98460.09;;;1.67;97.78
77165;BME280;66140;50.280;18.660;2023-02-02T10:00:59;98500.94;;;1.93;97.20
77165;BME280;66140;50.280;18.660;2023-02-02T10:03:35;98493.25;;;1.90;96.83
77165;BME280;66140;50.280;18.660;2023-02-02T10:06:28;98467.72;;;1.73;96.35
77165;BME280;66140;50.280;18.660;2023-02-02T10:11:44;98501.56;;;1.99;94.92
77165;BME280;66140;50.280;18.660;2023-02-02T10:17:29;98510.78;;;2.10;94.37
77165;BME280;66140;50.280;18.660;2023-02-02T10:20:50;98482.47;;;1.97;94.14
77165;BME280;66140;50.280;18.660;2023-02-02T10:22:49;98479.91;;;1.96;94.40
77165;BME280;66140;50.280;18.660;2023-02-02T10:25:15;98503.22;;;2.02;93.40
77165;BME280;66140;50.280;18.660;2023-02-02T10:27:46;98538.41;;;2.17;94.52
77165;BME280;66140;50.280;18.660;2023-02-02T10:30:19;98536.56;;;1.97;94.67
77165;BME280;66140;50.280;18.660;2023-02-02T10:33:05;98528.31;;;1.61;95.94
77165;BME280;66140;50.280;18.660;2023-02-02T10:35:33;98547.88;;;1.51;96.47
77165;BME280;66140;50.280;18.660;2023-02-02T10:46:22;98562.19;;;1.41;98.84
77165;BME280;66140;50.280;18.660;2023-02-02T10:48:59;98528.97;;;1.19;98.43
77165;BME280;66140;50.280;18.660;2023-02-02T10:51:33;98543.94;;;1.39;98.50
77165;BME280;66140;50.280;18.660;2023-02-02T10:54:01;98516.09;;;1.38;98.62
77165;BME280;66140;50.280;18.660;2023-02-02T10:56:36;98520.38;;;1.41;98.61
77165;BME280;66140;50.280;18.660;2023-02-02T10:59:20;98546.75;;;1.58;98.27
77165;BME280;66140;50.280;18.660;2023-02-02T11:01:49;98519.75;;;1.57;98.57
77165;BME280;66140;50.280;18.660;2023-02-02T11:04:15;98516.84;;;1.65;98.36
77165;BME280;66140;50.280;18.660;2023-02-02T11:07:00;98538.09;;;1.79;97.15
77165;BME280;66140;50.280;18.660;2023-02-02T11:09:51;98525.88;;;1.56;96.63
77165;BME280;66140;50.280;18.660;2023-02-02T11:12:35;98547.38;;;1.65;96.09
77165;BME280;66140;50.280;18.660;2023-02-02T11:15:26;98577.41;;;1.78;98.19
77165;BME280;66140;50.280;18.660;2023-02-02T11:17:52;98538.38;;;1.48;97.91
77165;BME280;66140;50.280;18.660;2023-02-02T11:20:33;98580.06;;;1.76;97.94
77165;BME280;66140;50.280;18.660;2023-02-02T11:23:03;98543.69;;;1.47;98.35
77165;BME280;66140;50.280;18.660;2023-02-02T11:25:35;98596.66;;;1.75;97.95
77165;BME280;66140;50.280;18.660;2023-02-02T11:28:21;98536.06;;;1.41;98.60
77165;BME280;66140;50.280;18.660;2023-02-02T11:30:50;98551.75;;;1.41;98.51
77165;BME280;66140;50.280;18.660;2023-02-02T11:33:30;98589.78;;;1.73;98.99
77165;BME280;66140;50.280;18.660;2023-02-02T11:36:16;98573.56;;;1.63;98.69
77165;BME280;66140;50.280;18.660;2023-02-02T11:38:42;98589.63;;;1.77;98.62
77165;BME280;66140;50.280;18.660;2023-02-02T11:41:12;98540.44;;;1.64;98.52
77165;BME280;66140;50.280;18.660;2023-02-02T11:43:50;98587.66;;;2.06;98.64
77165;BME280;66140;50.280;18.660;2023-02-02T11:46:22;98577.81;;;2.12;98.74
77165;BME280;66140;50.280;18.660;2023-02-02T11:49:01;98580.94;;;2.22;98.38
77165;BME280;66140;50.280;18.660;2023-02-02T11:51:29;98557.88;;;2.10;98.27
77165;BME280;66140;50.280;18.660;2023-02-02T11:54:45;98571.72;;;2.12;96.78
77165;BME280;66140;50.280;18.660;2023-02-02T11:57:18;98624.06;;;2.35;97.23
77165;BME280;66140;50.280;18.660;2023-02-02T12:02:48;98611.78;;;2.14;97.25
77165;BME280;66140;50.280;18.660;2023-02-02T12:05:33;98585.28;;;1.99;96.67
77165;BME280;66140;50.280;18.660;2023-02-02T12:07:59;98602.00;;;1.95;96.99
77165;BME280;66140;50.280;18.660;2023-02-02T12:11:00;98596.78;;;1.95;97.23
77165;BME280;66140;50.280;18.660;2023-02-02T12:13:49;98619.06;;;2.06;97.73
77165;BME280;66140;50.280;18.660;2023-02-02T12:16:35;98626.28;;;2.22;97.66
77165;BME280;66140;50.280;18.660;2023-02-02T12:21:56;98604.97;;;2.10;97.39
77165;BME280;66140;50.280;18.660;2023-02-02T12:30:16;98624.25;;;2.30;95.97
77165;BME280;66140;50.280;18.660;2023-02-02T12:35:47;98588.53;;;2.06;96.67
77165;BME280;66140;50.280;18.660;2023-02-02T12:43:39;98605.69;;;2.13;96.78
77165;BME280;66140;50.280;18.660;2023-02-02T12:46:16;98610.34;;;2.28;96.36
77165;BME280;66140;50.280;18.660;2023-02-02T12:49:12;98651.91;;;2.59;95.20
77165;BME280;66140;50.280;18.660;2023-02-02T12:55:21;98680.91;;;2.55;94.65
77165;BME280;66140;50.280;18.660;2023-02-02T13:01:12;98672.25;;;2.53;93.64
77165;BME280;66140;50.280;18.660;2023-02-02T13:06:34;98676.84;;;2.46;94.83
77165;BME280;66140;50.280;18.660;2023-02-02T13:12:07;98687.34;;;2.46;95.43
77165;BME280;66140;50.280;18.660;2023-02-02T13:14:40;98642.09;;;2.19;95.46
77165;BME280;66140;50.280;18.660;2023-02-02T13:17:20;98658.47;;;2.24;95.86
77165;BME280;66140;50.280;18.660;2023-02-02T13:19:51;98641.38;;;2.16;95.81
77165;BME280;66140;50.280;18.660;2023-02-02T13:22:24;98629.91;;;2.18;94.98
77165;BME280;66140;50.280;18.660;2023-02-02T13:25:00;98671.06;;;2.38;94.81
77165;BME280;66140;50.280;18.660;2023-02-02T13:27:32;98678.66;;;2.44;94.46
77165;BME280;66140;50.280;18.660;2023-02-02T13:30:26;98697.56;;;2.52;94.00
77165;BME280;66140;50.280;18.660;2023-02-02T13:33:04;98653.88;;;2.31;93.58
77165;BME280;66140;50.280;18.660;2023-02-02T13:38:21;98671.84;;;2.40;91.64
77165;BME280;66140;50.280;18.660;2023-02-02T13:40:49;98655.44;;;2.36;91.91
77165;BME280;66140;50.280;18.660;2023-02-02T13:43:21;98701.44;;;2.65;91.28
77165;BME280;66140;50.280;18.660;2023-02-02T13:46:02;98709.28;;;2.65;92.94
77165;BME280;66140;50.280;18.660;2023-02-02T14:06:14;98713.84;;;2.37;91.64
77165;BME280;66140;50.280;18.660;2023-02-02T14:09:15;98713.84;;;2.37;91.10
77165;BME280;66140;50.280;18.660;2023-02-02T14:11:54;98708.56;;;2.38;92.55
77165;BME280;66140;50.280;18.660;2023-02-02T14:14:38;98719.66;;;2.45;92.55
77165;BME280;66140;50.280;18.660;2023-02-02T14:32:28;98791.75;;;2.78;91.49
77165;BME280;66140;50.280;18.660;2023-02-02T14:34:54;98796.31;;;2.73;92.45
77165;BME280;66140;50.280;18.660;2023-02-02T14:43:10;98805.38;;;2.63;91.31
77165;BME280;66140;50.280;18.660;2023-02-02T15:02:41;98798.59;;;1.85;93.47
77165;BME280;66140;50.280;18.660;2023-02-02T15:08:23;98859.28;;;2.21;93.68
77165;BME280;66140;50.280;18.660;2023-02-02T15:13:33;98831.50;;;1.92;93.11
77165;BME280;66140;50.280;18.660;2023-02-02T15:16:28;98832.53;;;1.86;93.18
77165;BME280;66140;50.280;18.660;2023-02-02T15:19:07;98866.78;;;2.05;92.82
77165;BME280;66140;50.280;18.660;2023-02-02T15:21:38;98846.63;;;1.82;93.12
77165;BME280;66140;50.280;18.660;2023-02-02T15:24:12;98860.28;;;1.92;93.13
77165;BME280;66140;50.280;18.660;2023-02-02T15:26:41;98867.47;;;1.85;92.69
77165;BME280;66140;50.280;18.660;2023-02-02T15:29:20;98895.72;;;2.00;92.98
77165;BME280;66140;50.280;18.660;2023-02-02T15:31:50;98898.53;;;1.94;93.06
77165;BME280;66140;50.280;18.660;2023-02-02T15:34:25;98906.53;;;1.90;92.91
77165;BME280;66140;50.280;18.660;2023-02-02T15:36:54;98879.53;;;1.61;93.10
77165;BME280;66140;50.280;18.660;2023-02-02T15:39:37;98915.50;;;1.83;93.46
77165;BME280;66140;50.280;18.660;2023-02-02T15:42:13;98932.22;;;1.77;92.99
77165;BME280;66140;50.280;18.660;2023-02-02T15:45:00;98930.50;;;1.76;93.21
77165;BME280;66140;50.280;18.660;2023-02-02T15:47:44;98936.03;;;1.67;93.36
77165;BME280;66140;50.280;18.660;2023-02-02T15:50:18;98924.88;;;1.60;93.33
77165;BME280;66140;50.280;18.660;2023-02-02T15:52:48;98938.59;;;1.69;91.63
77165;BME280;66140;50.280;18.660;2023-02-02T15:55:34;98925.91;;;1.56;92.66
77165;BME280;66140;50.280;18.660;2023-02-02T15:58:01;98955.34;;;1.63;92.92
77165;BME280;66140;50.280;18.660;2023-02-02T16:00:35;98962.94;;;1.71;92.89
77165;BME280;66140;50.280;18.660;2023-02-02T16:03:18;98945.25;;;1.51;93.21
77165;BME280;66140;50.280;18.660;2023-02-02T16:05:53;98974.63;;;1.59;93.51
77165;BME280;66140;50.280;18.660;2023-02-02T16:08:25;98976.28;;;1.61;93.26
77165;BME280;66140;50.280;18.660;2023-02-02T16:11:21;98969.09;;;1.40;93.22
77165;BME280;66140;50.280;18.660;2023-02-02T16:16:33;98992.38;;;1.48;92.75
77165;BME280;66140;50.280;18.660;2023-02-02T16:19:24;99021.72;;;1.59;93.13
77165;BME280;66140;50.280;18.660;2023-02-02T16:22:14;99024.34;;;1.57;92.85
77165;BME280;66140;50.280;18.660;2023-02-02T16:24:59;99023.56;;;1.54;93.05
77165;BME280;66140;50.280;18.660;2023-02-02T16:27:29;99015.19;;;1.43;92.59
77165;BME280;66140;50.280;18.660;2023-02-02T16:40:23;99012.25;;;0.92;92.58
77165;BME280;66140;50.280;18.660;2023-02-02T16:43:29;99070.13;;;1.09;92.26
77165;BME280;66140;50.280;18.660;2023-02-02T16:46:15;99076.66;;;0.93;93.48
77165;BME280;66140;50.280;18.660;2023-02-02T16:52:32;99108.41;;;1.10;92.68
77165;BME280;66140;50.280;18.660;2023-02-02T16:55:30;99120.22;;;1.26;91.93
77165;BME280;66140;50.280;18.660;2023-02-02T16:58:30;99083.97;;;1.12;91.69
77165;BME280;66140;50.280;18.660;2023-02-02T17:01:46;99071.25;;;1.00;91.25
77165;BME280;66140;50.280;18.660;2023-02-02T17:04:58;99094.50;;;1.09;90.93
77165;BME280;66140;50.280;18.660;2023-02-02T17:11:19;99094.81;;;0.97;90.90
77165;BME280;66140;50.280;18.660;2023-02-02T17:14:18;99089.09;;;0.83;90.66
77165;BME280;66140;50.280;18.660;2023-02-02T17:20:19;99130.06;;;0.81;90.46
77165;BME280;66140;50.280;18.660;2023-02-02T17:23:27;99135.50;;;0.72;89.33
77165;BME280;66140;50.280;18.660;2023-02-02T17:29:28;99141.16;;;0.54;90.09
77165;BME280;66140;50.280;18.660;2023-02-02T17:35:29;99119.38;;;0.16;90.60
77165;BME280;66140;50.280;18.660;2023-02-02T18:33:33;99257.03;;;0.02;90.49
77165;BME280;66140;50.280;18.660;2023-02-02T18:36:23;99275.91;;;0.16;89.56
77165;BME280;66140;50.280;18.660;2023-02-02T18:39:10;99260.41;;;0.07;90.26
77165;BME280;66140;50.280;18.660;2023-02-02T18:41:58;99311.19;;;0.35;89.38
77165;BME280;66140;50.280;18.660;2023-02-02T18:44:26;99278.63;;;0.12;88.38
77165;BME280;66140;50.280;18.660;2023-02-02T18:47:12;99313.81;;;0.34;88.18
77165;BME280;66140;50.280;18.660;2023-02-02T18:49:38;99318.22;;;0.32;87.57
77165;BME280;66140;50.280;18.660;2023-02-02T19:09:26;99343.50;;;0.28;83.40
77165;BME280;66140;50.280;18.660;2023-02-02T19:25:17;99413.59;;;0.50;82.85
77165;BME280;66140;50.280;18.660;2023-02-02T19:29:09;99429.38;;;0.44;83.29
77165;BME280;66140;50.280;18.660;2023-02-02T19:32:03;99401.06;;;0.19;82.66
77165;BME280;66140;50.280;18.660;2023-02-02T19:38:12;99435.47;;;0.43;82.10
77165;BME280;66140;50.280;18.660;2023-02-02T19:40:47;99392.41;;;0.17;81.88
77165;BME280;66140;50.280;18.660;2023-02-02T19:43:26;99440.69;;;0.43;80.88
77165;BME280;66140;50.280;18.660;2023-02-02T19:46:01;99413.31;;;0.16;81.26
77165;BME280;66140;50.280;18.660;2023-02-02T19:48:33;99434.06;;;0.23;81.52
77165;BME280;66140;50.280;18.660;2023-02-02T19:50:59;99429.72;;;0.24;81.83
77165;BME280;66140;50.280;18.660;2023-02-02T19:53:45;99415.19;;;0.08;81.28
77165;BME280;66140;50.280;18.660;2023-02-02T19:56:26;99425.59;;;0.11;82.64
77165;BME280;66140;50.280;18.660;2023-02-02T19:59:26;99447.19;;;0.19;82.63
77165;BME280;66140;50.280;18.660;2023-02-02T20:01:57;99463.63;;;0.25;82.38
77165;BME280;66140;50.280;18.660;2023-02-02T20:04:22;99453.22;;;0.22;81.62
77165;BME280;66140;50.280;18.660;2023-02-02T20:06:49;99475.75;;;0.26;82.08
77165;BME280;66140;50.280;18.660;2023-02-02T20:09:17;99471.50;;;0.21;83.33
77165;BME280;66140;50.280;18.660;2023-02-02T20:11:44;99496.53;;;0.32;81.63
77165;BME280;66140;50.280;18.660;2023-02-02T20:14:28;99499.13;;;0.32;80.92
77165;BME280;66140;50.280;18.660;2023-02-02T20:17:03;99509.66;;;0.28;82.62
77165;BME280;66140;50.280;18.660;2023-02-02T20:19:35;99517.56;;;0.23;83.20
77165;BME280;66140;50.280;18.660;2023-02-02T20:22:19;99514.28;;;0.11;84.21
77165;BME280;66140;50.280;18.660;2023-02-02T20:24:47;99513.34;;;0.15;83.05
77165;BME280;66140;50.280;18.660;2023-02-02T20:27:19;99517.00;;;0.03;83.30
77165;BME280;66140;50.280;18.660;2023-02-02T20:29:47;99517.00;;;0.02;83.40
